sensor_id;sensor_type;location;lat;lon;timestamp;P1;durP1;ratioP1;P2;durP2;ratioP2
56401;SDS011;42299;35.160;26.100;2023-06-01T06:01:24;17.98;;;12.63;;
56401;SDS011;42299;35.160;26.100;2023-06-01T06:02:49;20.30;;;12.63;;
56401;SDS011;42299;35.160;26.100;2023-06-01T06:04:10;19.45;;;12.60;;
56401;SDS011;42299;35.160;26.100;2023-06-01T06:05:33;18.25;;;10.98;;
56401;SDS011;42299;35.160;26.100;2023-06-01T06:06:55;17.73;;;11.18;;
56401;SDS011;42299;35.160;26.100;2023-06-01T06:08:18;19.90;;;10.88;;
56401;SDS011;42299;35.160;26.100;2023-06-01T06:09:40;14.10;;;9.40;;
56401;SDS011;42299;35.160;26.100;2023-06-01T06:11:03;15.25;;;10.15;;
56401;SDS011;42299;35.160;26.100;2023-06-01T06:12:26;15.32;;;9.73;;
56401;SDS011;42299;35.160;26.100;2023-06-01T06:15:10;21.30;;;10.48;;
56401;SDS011;42299;35.160;26.100;2023-06-01T06:16:34;16.60;;;9.55;;
56401;SDS011;42299;35.160;26.100;2023-06-01T06:17:57;14.85;;;8.98;;
56401;SDS011;42299;35.160;26.100;2023-06-01T06:19:19;15.73;;;9.63;;
56401;SDS011;42299;35.160;26.100;2023-06-01T06:20:42;14.23;;;8.85;;
56401;SDS011;42299;35.160;26.100;2023-06-01T06:22:06;15.63;;;8.73;;
56401;SDS011;42299;35.160;26.100;2023-06-01T06:23:28;16.45;;;9.05;;
56401;SDS011;42299;35.160;26.100;2023-06-01T06:24:53;16.98;;;9.23;;
56401;SDS011;42299;35.160;26.100;2023-06-01T06:26:15;15.27;;;9.23;;
56401;SDS011;42299;35.160;26.100;2023-06-01T06:27:37;14.10;;;8.75;;
56401;SDS011;42299;35.160;26.100;2023-06-01T06:28:58;14.45;;;7.97;;
56401;SDS011;42299;35.160;26.100;2023-06-01T06:30:21;14.07;;;8.88;;
56401;SDS011;42299;35.160;26.100;2023-06-01T06:31:46;14.05;;;8.60;;
56401;SDS011;42299;35.160;26.100;2023-06-01T06:33:09;13.93;;;7.70;;
56401;SDS011;42299;35.160;26.100;2023-06-01T06:34:32;14.80;;;8.18;;
56401;SDS011;42299;35.160;26.100;2023-06-01T06:35:55;15.82;;;7.82;;
56401;SDS011;42299;35.160;26.100;2023-06-01T06:37:18;18.52;;;7.60;;
56401;SDS011;42299;35.160;26.100;2023-06-01T06:38:40;13.13;;;7.05;;
56401;SDS011;42299;35.160;26.100;2023-06-01T06:40:03;12.70;;;6.72;;
56401;SDS011;42299;35.160;26.100;2023-06-01T06:41:27;11.60;;;6.82;;
56401;SDS011;42299;35.160;26.100;2023-06-01T06:42:49;11.35;;;6.78;;
56401;SDS011;42299;35.160;26.100;2023-06-01T06:44:13;13.73;;;7.05;;
56401;SDS011;42299;35.160;26.100;2023-06-01T06:45:36;10.75;;;6.10;;
56401;SDS011;42299;35.160;26.100;2023-06-01T06:47:01;10.93;;;6.25;;
56401;SDS011;42299;35.160;26.100;2023-06-01T06:48:23;11.10;;;5.90;;
56401;SDS011;42299;35.160;26.100;2023-06-01T06:49:46;12.68;;;6.32;;
56401;SDS011;42299;35.160;26.100;2023-06-01T06:51:09;13.25;;;5.78;;
56401;SDS011;42299;35.160;26.100;2023-06-01T06:52:32;11.07;;;6.07;;
56401;SDS011;42299;35.160;26.100;2023-06-01T06:53:54;9.07;;;5.68;;
56401;SDS011;42299;35.160;26.100;2023-06-01T06:55:18;11.77;;;6.38;;
56401;SDS011;42299;35.160;26.100;2023-06-01T06:56:41;11.65;;;6.45;;
56401;SDS011;42299;35.160;26.100;2023-06-01T06:58:02;16.13;;;5.78;;
56401;SDS011;42299;35.160;26.100;2023-06-01T06:59:24;11.27;;;6.40;;
56401;SDS011;42299;35.160;26.100;2023-06-01T07:00:47;11.63;;;6.00;;
56401;SDS011;42299;35.160;26.100;2023-06-01T07:02:11;10.80;;;5.63;;
56401;SDS011;42299;35.160;26.100;2023-06-01T07:03:34;12.20;;;5.50;;
56401;SDS011;42299;35.160;26.100;2023-06-01T07:04:58;14.45;;;6.03;;
56401;SDS011;42299;35.160;26.100;2023-06-01T07:06:21;10.73;;;5.93;;
56401;SDS011;42299;35.160;26.100;2023-06-01T07:07:44;10.50;;;5.72;;
56401;SDS011;42299;35.160;26.100;2023-06-01T07:09:07;11.07;;;5.95;;
56401;SDS011;42299;35.160;26.100;2023-06-01T07:10:29;10.68;;;6.25;;
56401;SDS011;42299;35.160;26.100;2023-06-01T07:11:52;12.65;;;6.43;;
56401;SDS011;42299;35.160;26.100;2023-06-01T07:13:14;11.25;;;5.90;;
56401;SDS011;42299;35.160;26.100;2023-06-01T07:14:37;12.05;;;5.30;;
56401;SDS011;42299;35.160;26.100;2023-06-01T07:16:00;10.60;;;5.28;;
56401;SDS011;42299;35.160;26.100;2023-06-01T07:17:24;12.32;;;6.03;;
56401;SDS011;42299;35.160;26.100;2023-06-01T07:18:46;6.65;;;4.07;;
56401;SDS011;42299;35.160;26.100;2023-06-01T07:20:09;10.38;;;5.57;;
56401;SDS011;42299;35.160;26.100;2023-06-01T07:21:32;10.48;;;5.82;;
56401;SDS011;42299;35.160;26.100;2023-06-01T07:22:53;9.07;;;5.10;;
56401;SDS011;42299;35.160;26.100;2023-06-01T07:24:17;11.93;;;5.85;;
56401;SDS011;42299;35.160;26.100;2023-06-01T07:25:40;11.98;;;5.30;;
56401;SDS011;42299;35.160;26.100;2023-06-01T07:27:03;10.95;;;5.60;;
56401;SDS011;42299;35.160;26.100;2023-06-01T07:28:26;10.18;;;5.30;;
56401;SDS011;42299;35.160;26.100;2023-06-01T07:29:47;10.27;;;4.32;;
56401;SDS011;42299;35.160;26.100;2023-06-01T07:31:15;10.98;;;5.25;;
56401;SDS011;42299;35.160;26.100;2023-06-01T07:32:39;11.45;;;4.85;;
56401;SDS011;42299;35.160;26.100;2023-06-01T07:34:01;12.48;;;5.80;;
56401;SDS011;42299;35.160;26.100;2023-06-01T07:35:24;10.40;;;5.78;;
56401;SDS011;42299;35.160;26.100;2023-06-01T07:36:48;11.75;;;6.38;;
56401;SDS011;42299;35.160;26.100;2023-06-01T07:38:10;9.27;;;5.53;;
56401;SDS011;42299;35.160;26.100;2023-06-01T07:39:34;11.30;;;6.28;;
56401;SDS011;42299;35.160;26.100;2023-06-01T07:40:57;8.50;;;4.70;;
56401;SDS011;42299;35.160;26.100;2023-06-01T07:42:18;10.55;;;5.18;;
56401;SDS011;42299;35.160;26.100;2023-06-01T07:43:40;9.80;;;5.55;;
56401;SDS011;42299;35.160;26.100;2023-06-01T07:45:03;9.18;;;5.07;;
56401;SDS011;42299;35.160;26.100;2023-06-01T07:46:28;10.75;;;5.72;;
56401;SDS011;42299;35.160;26.100;2023-06-01T07:47:52;12.35;;;5.88;;
56401;SDS011;42299;35.160;26.100;2023-06-01T07:49:15;7.47;;;4.45;;
56401;SDS011;42299;35.160;26.100;2023-06-01T07:50:37;12.38;;;6.43;;
56401;SDS011;42299;35.160;26.100;2023-06-01T07:52:00;10.55;;;5.85;;
56401;SDS011;42299;35.160;26.100;2023-06-01T07:53:23;10.95;;;5.88;;
56401;SDS011;42299;35.160;26.100;2023-06-01T07:54:46;10.10;;;5.90;;
56401;SDS011;42299;35.160;26.100;2023-06-01T07:56:10;11.65;;;5.38;;
56401;SDS011;42299;35.160;26.100;2023-06-01T07:57:32;10.95;;;5.55;;
56401;SDS011;42299;35.160;26.100;2023-06-01T07:58:55;13.82;;;5.90;;
56401;SDS011;42299;35.160;26.100;2023-06-01T08:00:18;9.15;;;5.32;;
56401;SDS011;42299;35.160;26.100;2023-06-01T08:01:41;10.73;;;5.55;;
56401;SDS011;42299;35.160;26.100;2023-06-01T08:03:05;10.65;;;5.03;;
56401;SDS011;42299;35.160;26.100;2023-06-01T08:04:28;8.90;;;5.35;;
56401;SDS011;42299;35.160;26.100;2023-06-01T08:05:53;11.40;;;5.88;;
56401;SDS011;42299;35.160;26.100;2023-06-01T08:07:17;8.18;;;5.65;;
56401;SDS011;42299;35.160;26.100;2023-06-01T08:08:40;9.02;;;4.88;;
56401;SDS011;42299;35.160;26.100;2023-06-01T08:10:03;9.70;;;5.97;;
56401;SDS011;42299;35.160;26.100;2023-06-01T08:11:26;11.07;;;5.78;;
56401;SDS011;42299;35.160;26.100;2023-06-01T08:12:48;8.68;;;5.10;;
56401;SDS011;42299;35.160;26.100;2023-06-01T08:14:16;8.80;;;5.68;;
56401;SDS011;42299;35.160;26.100;2023-06-01T08:15:39;14.02;;;5.53;;
56401;SDS011;42299;35.160;26.100;2023-06-01T08:17:02;8.07;;;4.43;;
56401;SDS011;42299;35.160;26.100;2023-06-01T08:18:28;12.77;;;5.43;;
56401;SDS011;42299;35.160;26.100;2023-06-01T08:19:51;6.53;;;3.78;;
56401;SDS011;42299;35.160;26.100;2023-06-01T08:21:14;10.63;;;6.05;;
56401;SDS011;42299;35.160;26.100;2023-06-01T08:22:38;10.38;;;5.35;;
56401;SDS011;42299;35.160;26.100;2023-06-01T08:24:02;10.68;;;5.40;;
56401;SDS011;42299;35.160;26.100;2023-06-01T08:25:24;14.30;;;4.97;;
56401;SDS011;42299;35.160;26.100;2023-06-01T08:26:46;12.25;;;4.88;;
56401;SDS011;42299;35.160;26.100;2023-06-01T08:28:08;9.75;;;4.88;;
56401;SDS011;42299;35.160;26.100;2023-06-01T08:29:31;11.35;;;5.85;;
56401;SDS011;42299;35.160;26.100;2023-06-01T08:30:53;12.18;;;5.22;;
56401;SDS011;42299;35.160;26.100;2023-06-01T08:32:16;9.57;;;4.57;;
56401;SDS011;42299;35.160;26.100;2023-06-01T08:33:41;10.23;;;5.32;;
56401;SDS011;42299;35.160;26.100;2023-06-01T08:35:04;9.50;;;4.72;;
56401;SDS011;42299;35.160;26.100;2023-06-01T08:36:26;10.50;;;5.70;;
56401;SDS011;42299;35.160;26.100;2023-06-01T08:37:49;8.45;;;5.10;;
56401;SDS011;42299;35.160;26.100;2023-06-01T08:39:20;10.27;;;5.18;;
56401;SDS011;42299;35.160;26.100;2023-06-01T08:40:44;10.27;;;4.78;;
56401;SDS011;42299;35.160;26.100;2023-06-01T08:42:07;12.15;;;5.28;;
56401;SDS011;42299;35.160;26.100;2023-06-01T08:43:31;10.40;;;5.25;;
56401;SDS011;42299;35.160;26.100;2023-06-01T08:44:59;9.95;;;4.82;;
56401;SDS011;42299;35.160;26.100;2023-06-01T08:46:26;9.40;;;4.75;;
56401;SDS011;42299;35.160;26.100;2023-06-01T08:47:53;10.25;;;5.03;;
56401;SDS011;42299;35.160;26.100;2023-06-01T08:49:17;9.43;;;5.53;;
56401;SDS011;42299;35.160;26.100;2023-06-01T08:50:41;7.65;;;4.45;;
56401;SDS011;42299;35.160;26.100;2023-06-01T08:52:06;11.65;;;4.85;;
56401;SDS011;42299;35.160;26.100;2023-06-01T08:53:29;9.25;;;4.85;;
56401;SDS011;42299;35.160;26.100;2023-06-01T08:54:53;8.20;;;5.35;;
56401;SDS011;42299;35.160;26.100;2023-06-01T08:56:15;13.02;;;4.88;;
56401;SDS011;42299;35.160;26.100;2023-06-01T08:57:39;9.60;;;4.90;;
56401;SDS011;42299;35.160;26.100;2023-06-01T08:59:02;9.93;;;5.18;;
56401;SDS011;42299;35.160;26.100;2023-06-01T09:00:25;9.48;;;5.20;;
56401;SDS011;42299;35.160;26.100;2023-06-01T09:01:48;10.43;;;4.78;;
56401;SDS011;42299;35.160;26.100;2023-06-01T09:03:11;7.97;;;4.57;;
56401;SDS011;42299;35.160;26.100;2023-06-01T09:04:35;9.07;;;5.10;;
56401;SDS011;42299;35.160;26.100;2023-06-01T09:06:02;8.52;;;5.57;;
56401;SDS011;42299;35.160;26.100;2023-06-01T09:07:27;9.00;;;5.20;;
56401;SDS011;42299;35.160;26.100;2023-06-01T09:08:51;9.88;;;4.38;;
56401;SDS011;42299;35.160;26.100;2023-06-01T09:10:14;6.97;;;4.28;;
56401;SDS011;42299;35.160;26.100;2023-06-01T09:11:37;9.32;;;4.30;;
56401;SDS011;42299;35.160;26.100;2023-06-01T09:12:59;7.82;;;4.13;;
56401;SDS011;42299;35.160;26.100;2023-06-01T09:14:22;12.32;;;4.47;;
56401;SDS011;42299;35.160;26.100;2023-06-01T09:15:50;8.70;;;4.30;;
56401;SDS011;42299;35.160;26.100;2023-06-01T09:17:14;8.27;;;4.68;;
56401;SDS011;42299;35.160;26.100;2023-06-01T09:18:52;10.98;;;4.55;;
56401;SDS011;42299;35.160;26.100;2023-06-01T09:20:22;10.05;;;4.70;;
56401;SDS011;42299;35.160;26.100;2023-06-01T09:21:55;7.82;;;3.78;;
56401;SDS011;42299;35.160;26.100;2023-06-01T09:23:22;11.88;;;4.90;;
56401;SDS011;42299;35.160;26.100;2023-06-01T09:24:54;9.55;;;3.92;;
56401;SDS011;42299;35.160;26.100;2023-06-01T09:26:18;8.93;;;4.38;;
56401;SDS011;42299;35.160;26.100;2023-06-01T09:27:48;7.90;;;3.95;;
56401;SDS011;42299;35.160;26.100;2023-06-01T09:29:12;7.43;;;3.95;;
56401;SDS011;42299;35.160;26.100;2023-06-01T09:30:40;10.48;;;4.47;;
56401;SDS011;42299;35.160;26.100;2023-06-01T09:32:04;8.05;;;4.10;;
56401;SDS011;42299;35.160;26.100;2023-06-01T09:33:27;11.27;;;3.97;;
56401;SDS011;42299;35.160;26.100;2023-06-01T09:34:49;9.50;;;4.05;;
56401;SDS011;42299;35.160;26.100;2023-06-01T09:36:14;7.35;;;3.67;;
56401;SDS011;42299;35.160;26.100;2023-06-01T09:37:55;8.20;;;4.57;;
56401;SDS011;42299;35.160;26.100;2023-06-01T09:39:18;8.63;;;4.28;;
56401;SDS011;42299;35.160;26.100;2023-06-01T09:40:42;10.32;;;4.05;;
56401;SDS011;42299;35.160;26.100;2023-06-01T09:42:18;9.70;;;4.55;;
56401;SDS011;42299;35.160;26.100;2023-06-01T09:43:53;7.78;;;4.20;;
56401;SDS011;42299;35.160;26.100;2023-06-01T09:45:16;8.32;;;3.60;;
56401;SDS011;42299;35.160;26.100;2023-06-01T09:46:46;8.48;;;3.97;;
56401;SDS011;42299;35.160;26.100;2023-06-01T09:48:15;7.95;;;4.00;;
56401;SDS011;42299;35.160;26.100;2023-06-01T09:49:39;9.85;;;4.13;;
56401;SDS011;42299;35.160;26.100;2023-06-01T09:51:04;8.48;;;4.50;;
56401;SDS011;42299;35.160;26.100;2023-06-01T09:52:28;9.40;;;4.47;;
56401;SDS011;42299;35.160;26.100;2023-06-01T09:53:51;8.30;;;4.35;;
56401;SDS011;42299;35.160;26.100;2023-06-01T09:55:12;6.32;;;4.00;;
56401;SDS011;42299;35.160;26.100;2023-06-01T09:56:42;8.30;;;3.60;;
56401;SDS011;42299;35.160;26.100;2023-06-01T09:58:17;8.38;;;3.90;;
56401;SDS011;42299;35.160;26.100;2023-06-01T09:59:41;7.38;;;4.00;;
56401;SDS011;42299;35.160;26.100;2023-06-01T10:01:04;8.48;;;4.43;;
56401;SDS011;42299;35.160;26.100;2023-06-01T10:02:29;7.50;;;3.85;;
56401;SDS011;42299;35.160;26.100;2023-06-01T10:03:52;7.70;;;4.30;;
56401;SDS011;42299;35.160;26.100;2023-06-01T10:05:16;7.43;;;4.45;;
56401;SDS011;42299;35.160;26.100;2023-06-01T10:06:39;7.88;;;4.05;;
56401;SDS011;42299;35.160;26.100;2023-06-01T10:08:04;6.88;;;4.55;;
56401;SDS011;42299;35.160;26.100;2023-06-01T10:09:27;8.88;;;4.60;;
56401;SDS011;42299;35.160;26.100;2023-06-01T10:10:51;8.50;;;4.20;;
56401;SDS011;42299;35.160;26.100;2023-06-01T10:12:14;8.50;;;3.83;;
56401;SDS011;42299;35.160;26.100;2023-06-01T10:13:36;8.73;;;5.10;;
56401;SDS011;42299;35.160;26.100;2023-06-01T10:14:59;8.30;;;4.13;;
56401;SDS011;42299;35.160;26.100;2023-06-01T10:16:23;9.88;;;5.18;;
56401;SDS011;42299;35.160;26.100;2023-06-01T10:17:45;7.18;;;4.35;;
56401;SDS011;42299;35.160;26.100;2023-06-01T10:19:10;10.85;;;5.45;;
56401;SDS011;42299;35.160;26.100;2023-06-01T10:20:34;9.27;;;5.20;;
56401;SDS011;42299;35.160;26.100;2023-06-01T10:21:58;10.15;;;5.10;;
56401;SDS011;42299;35.160;26.100;2023-06-01T10:23:22;9.07;;;4.38;;
56401;SDS011;42299;35.160;26.100;2023-06-01T10:24:45;9.90;;;5.75;;
56401;SDS011;42299;35.160;26.100;2023-06-01T10:26:10;8.82;;;4.55;;
56401;SDS011;42299;35.160;26.100;2023-06-01T10:27:38;9.88;;;5.32;;
56401;SDS011;42299;35.160;26.100;2023-06-01T10:29:06;9.27;;;5.10;;
56401;SDS011;42299;35.160;26.100;2023-06-01T10:30:31;10.63;;;5.22;;
56401;SDS011;42299;35.160;26.100;2023-06-01T10:31:53;8.70;;;4.80;;
56401;SDS011;42299;35.160;26.100;2023-06-01T10:33:15;8.48;;;4.78;;
56401;SDS011;42299;35.160;26.100;2023-06-01T10:37:24;8.50;;;5.22;;
56401;SDS011;42299;35.160;26.100;2023-06-01T10:38:47;9.07;;;5.47;;
56401;SDS011;42299;35.160;26.100;2023-06-01T10:40:11;9.82;;;6.03;;
56401;SDS011;42299;35.160;26.100;2023-06-01T10:41:42;9.23;;;5.72;;
56401;SDS011;42299;35.160;26.100;2023-06-01T10:43:04;12.15;;;6.47;;
56401;SDS011;42299;35.160;26.100;2023-06-01T10:44:47;7.85;;;4.20;;
56401;SDS011;42299;35.160;26.100;2023-06-01T10:48:03;8.07;;;5.20;;
56401;SDS011;42299;35.160;26.100;2023-06-01T10:51:19;10.95;;;6.13;;
56401;SDS011;42299;35.160;26.100;2023-06-01T10:52:42;9.20;;;6.05;;
56401;SDS011;42299;35.160;26.100;2023-06-01T10:54:27;13.38;;;6.30;;
56401;SDS011;42299;35.160;26.100;2023-06-01T10:57:47;9.35;;;5.95;;
56401;SDS011;42299;35.160;26.100;2023-06-01T10:59:11;11.90;;;5.93;;
56401;SDS011;42299;35.160;26.100;2023-06-01T11:00:37;14.80;;;5.85;;
56401;SDS011;42299;35.160;26.100;2023-06-01T11:02:03;9.32;;;5.32;;
56401;SDS011;42299;35.160;26.100;2023-06-01T11:03:43;8.85;;;5.47;;
56401;SDS011;42299;35.160;26.100;2023-06-01T11:06:58;8.60;;;4.72;;
56401;SDS011;42299;35.160;26.100;2023-06-01T11:09:01;10.38;;;5.00;;
56401;SDS011;42299;35.160;26.100;2023-06-01T11:12:24;11.50;;;5.65;;
56401;SDS011;42299;35.160;26.100;2023-06-01T11:14:06;8.88;;;5.25;;
56401;SDS011;42299;35.160;26.100;2023-06-01T11:15:31;12.77;;;5.82;;
56401;SDS011;42299;35.160;26.100;2023-06-01T11:16:54;15.73;;;5.68;;
56401;SDS011;42299;35.160;26.100;2023-06-01T11:20:05;9.60;;;5.53;;
56401;SDS011;42299;35.160;26.100;2023-06-01T11:21:35;10.43;;;5.93;;
56401;SDS011;42299;35.160;26.100;2023-06-01T11:22:59;9.13;;;5.03;;
56401;SDS011;42299;35.160;26.100;2023-06-01T11:24:23;9.18;;;5.50;;
56401;SDS011;42299;35.160;26.100;2023-06-01T11:25:47;9.25;;;5.75;;
56401;SDS011;42299;35.160;26.100;2023-06-01T11:27:14;11.25;;;5.55;;
56401;SDS011;42299;35.160;26.100;2023-06-01T11:28:38;9.77;;;5.93;;
56401;SDS011;42299;35.160;26.100;2023-06-01T11:30:00;8.68;;;5.68;;
56401;SDS011;42299;35.160;26.100;2023-06-01T11:31:22;8.75;;;5.10;;
56401;SDS011;42299;35.160;26.100;2023-06-01T11:32:45;9.77;;;5.25;;
56401;SDS011;42299;35.160;26.100;2023-06-01T11:34:11;9.70;;;4.85;;
56401;SDS011;42299;35.160;26.100;2023-06-01T11:35:34;9.02;;;4.75;;
56401;SDS011;42299;35.160;26.100;2023-06-01T11:36:57;9.30;;;5.50;;
56401;SDS011;42299;35.160;26.100;2023-06-01T11:38:19;8.77;;;5.07;;
56401;SDS011;42299;35.160;26.100;2023-06-01T11:39:40;10.05;;;4.95;;
56401;SDS011;42299;35.160;26.100;2023-06-01T11:41:03;7.82;;;4.90;;
56401;SDS011;42299;35.160;26.100;2023-06-01T11:42:33;10.57;;;5.63;;
56401;SDS011;42299;35.160;26.100;2023-06-01T11:43:58;12.52;;;5.55;;
56401;SDS011;42299;35.160;26.100;2023-06-01T11:45:19;11.38;;;4.88;;
56401;SDS011;42299;35.160;26.100;2023-06-01T11:46:52;10.32;;;5.55;;
56401;SDS011;42299;35.160;26.100;2023-06-01T11:48:15;12.88;;;5.82;;
56401;SDS011;42299;35.160;26.100;2023-06-01T11:49:40;13.18;;;5.75;;
56401;SDS011;42299;35.160;26.100;2023-06-01T11:51:04;10.98;;;6.00;;
56401;SDS011;42299;35.160;26.100;2023-06-01T11:52:27;10.30;;;5.57;;
56401;SDS011;42299;35.160;26.100;2023-06-01T11:53:51;8.77;;;5.35;;
56401;SDS011;42299;35.160;26.100;2023-06-01T11:55:12;11.43;;;4.35;;
56401;SDS011;42299;35.160;26.100;2023-06-01T11:56:36;11.40;;;5.10;;
56401;SDS011;42299;35.160;26.100;2023-06-01T11:57:59;9.52;;;5.05;;
56401;SDS011;42299;35.160;26.100;2023-06-01T11:59:24;11.23;;;5.07;;
56401;SDS011;42299;35.160;26.100;2023-06-01T12:00:48;9.82;;;5.10;;
56401;SDS011;42299;35.160;26.100;2023-06-01T12:02:16;8.77;;;5.32;;
56401;SDS011;42299;35.160;26.100;2023-06-01T12:03:45;9.73;;;5.40;;
56401;SDS011;42299;35.160;26.100;2023-06-01T12:05:07;13.35;;;5.78;;
56401;SDS011;42299;35.160;26.100;2023-06-01T12:06:30;10.88;;;5.90;;
56401;SDS011;42299;35.160;26.100;2023-06-01T12:07:53;10.55;;;5.28;;
56401;SDS011;42299;35.160;26.100;2023-06-01T12:09:15;13.68;;;5.78;;
56401;SDS011;42299;35.160;26.100;2023-06-01T12:10:38;11.70;;;5.28;;
56401;SDS011;42299;35.160;26.100;2023-06-01T12:12:02;11.68;;;5.55;;
56401;SDS011;42299;35.160;26.100;2023-06-01T12:13:26;11.43;;;5.30;;
56401;SDS011;42299;35.160;26.100;2023-06-01T12:14:51;7.93;;;4.68;;
56401;SDS011;42299;35.160;26.100;2023-06-01T12:16:14;12.10;;;6.03;;
56401;SDS011;42299;35.160;26.100;2023-06-01T12:17:46;12.95;;;5.82;;
56401;SDS011;42299;35.160;26.100;2023-06-01T12:19:09;9.25;;;5.28;;
56401;SDS011;42299;35.160;26.100;2023-06-01T12:20:32;12.15;;;5.18;;
56401;SDS011;42299;35.160;26.100;2023-06-01T12:21:56;10.43;;;5.25;;
56401;SDS011;42299;35.160;26.100;2023-06-01T12:23:20;9.23;;;5.10;;
56401;SDS011;42299;35.160;26.100;2023-06-01T12:24:43;11.60;;;5.85;;
56401;SDS011;42299;35.160;26.100;2023-06-01T12:26:06;12.77;;;5.35;;
56401;SDS011;42299;35.160;26.100;2023-06-01T12:27:29;10.75;;;5.28;;
56401;SDS011;42299;35.160;26.100;2023-06-01T12:28:53;9.85;;;5.47;;
56401;SDS011;42299;35.160;26.100;2023-06-01T12:30:24;12.70;;;6.07;;
56401;SDS011;42299;35.160;26.100;2023-06-01T12:31:52;10.23;;;5.28;;
56401;SDS011;42299;35.160;26.100;2023-06-01T12:35:03;9.20;;;5.78;;
56401;SDS011;42299;35.160;26.100;2023-06-01T12:36:28;11.15;;;6.07;;
56401;SDS011;42299;35.160;26.100;2023-06-01T12:38:02;9.88;;;5.78;;
56401;SDS011;42299;35.160;26.100;2023-06-01T12:39:32;12.38;;;5.82;;
56401;SDS011;42299;35.160;26.100;2023-06-01T12:41:06;8.63;;;5.43;;
56401;SDS011;42299;35.160;26.100;2023-06-01T12:42:35;11.55;;;6.32;;
56401;SDS011;42299;35.160;26.100;2023-06-01T12:43:58;9.45;;;6.15;;
56401;SDS011;42299;35.160;26.100;2023-06-01T12:45:21;10.57;;;5.57;;
56401;SDS011;42299;35.160;26.100;2023-06-01T12:46:45;9.60;;;5.47;;
56401;SDS011;42299;35.160;26.100;2023-06-01T12:48:07;9.25;;;5.28;;
56401;SDS011;42299;35.160;26.100;2023-06-01T12:49:30;12.15;;;5.70;;
56401;SDS011;42299;35.160;26.100;2023-06-01T12:50:53;10.82;;;5.57;;
56401;SDS011;42299;35.160;26.100;2023-06-01T12:52:14;11.27;;;5.10;;
56401;SDS011;42299;35.160;26.100;2023-06-01T12:53:37;9.77;;;5.40;;
56401;SDS011;42299;35.160;26.100;2023-06-01T12:55:00;8.45;;;5.07;;
56401;SDS011;42299;35.160;26.100;2023-06-01T12:56:24;9.65;;;4.75;;
56401;SDS011;42299;35.160;26.100;2023-06-01T12:57:51;14.82;;;5.75;;
56401;SDS011;42299;35.160;26.100;2023-06-01T12:59:14;10.27;;;4.90;;
56401;SDS011;42299;35.160;26.100;2023-06-01T13:00:37;8.40;;;4.95;;
56401;SDS011;42299;35.160;26.100;2023-06-01T13:02:01;9.88;;;5.20;;
56401;SDS011;42299;35.160;26.100;2023-06-01T13:03:24;7.35;;;4.75;;
56401;SDS011;42299;35.160;26.100;2023-06-01T13:04:46;11.73;;;5.40;;
56401;SDS011;42299;35.160;26.100;2023-06-01T13:06:09;12.00;;;5.13;;
56401;SDS011;42299;35.160;26.100;2023-06-01T13:07:31;7.78;;;4.78;;
56401;SDS011;42299;35.160;26.100;2023-06-01T13:08:54;8.75;;;4.95;;
56401;SDS011;42299;35.160;26.100;2023-06-01T13:10:17;10.27;;;5.22;;
56401;SDS011;42299;35.160;26.100;2023-06-01T13:11:39;11.25;;;5.30;;
56401;SDS011;42299;35.160;26.100;2023-06-01T13:13:03;11.70;;;5.50;;
56401;SDS011;42299;35.160;26.100;2023-06-01T13:14:24;9.75;;;5.85;;
56401;SDS011;42299;35.160;26.100;2023-06-01T13:15:47;11.50;;;5.25;;
56401;SDS011;42299;35.160;26.100;2023-06-01T13:17:09;8.77;;;4.95;;
56401;SDS011;42299;35.160;26.100;2023-06-01T13:18:32;9.48;;;5.20;;
56401;SDS011;42299;35.160;26.100;2023-06-01T13:19:54;10.07;;;5.30;;
56401;SDS011;42299;35.160;26.100;2023-06-01T13:21:17;9.55;;;5.25;;
56401;SDS011;42299;35.160;26.100;2023-06-01T13:22:40;11.23;;;5.35;;
56401;SDS011;42299;35.160;26.100;2023-06-01T13:24:02;9.85;;;4.70;;
56401;SDS011;42299;35.160;26.100;2023-06-01T13:25:25;10.73;;;5.10;;
56401;SDS011;42299;35.160;26.100;2023-06-01T13:26:46;10.20;;;6.10;;
56401;SDS011;42299;35.160;26.100;2023-06-01T13:28:09;9.35;;;5.07;;
56401;SDS011;42299;35.160;26.100;2023-06-01T13:29:32;11.82;;;4.90;;
56401;SDS011;42299;35.160;26.100;2023-06-01T13:30:54;12.27;;;6.47;;
56401;SDS011;42299;35.160;26.100;2023-06-01T13:32:18;10.73;;;5.85;;
56401;SDS011;42299;35.160;26.100;2023-06-01T13:33:41;8.80;;;5.05;;
56401;SDS011;42299;35.160;26.100;2023-06-01T13:35:04;9.20;;;5.35;;
56401;SDS011;42299;35.160;26.100;2023-06-01T13:36:26;10.82;;;5.35;;
56401;SDS011;42299;35.160;26.100;2023-06-01T13:37:49;14.45;;;6.10;;
56401;SDS011;42299;35.160;26.100;2023-06-01T13:39:11;9.60;;;5.45;;
56401;SDS011;42299;35.160;26.100;2023-06-01T13:40:33;10.45;;;5.45;;
56401;SDS011;42299;35.160;26.100;2023-06-01T13:41:57;10.48;;;6.13;;
56401;SDS011;42299;35.160;26.100;2023-06-01T13:43:19;9.88;;;5.55;;
56401;SDS011;42299;35.160;26.100;2023-06-01T13:44:42;11.02;;;6.40;;
56401;SDS011;42299;35.160;26.100;2023-06-01T13:46:06;9.32;;;5.50;;
56401;SDS011;42299;35.160;26.100;2023-06-01T13:47:32;9.20;;;5.43;;
56401;SDS011;42299;35.160;26.100;2023-06-01T13:48:53;10.23;;;5.53;;
56401;SDS011;42299;35.160;26.100;2023-06-01T13:50:16;9.88;;;5.78;;
56401;SDS011;42299;35.160;26.100;2023-06-01T13:51:38;12.23;;;6.07;;
56401;SDS011;42299;35.160;26.100;2023-06-01T13:53:01;10.38;;;5.53;;
56401;SDS011;42299;35.160;26.100;2023-06-01T13:54:26;10.63;;;5.30;;
56401;SDS011;42299;35.160;26.100;2023-06-01T13:55:48;10.25;;;6.15;;
56401;SDS011;42299;35.160;26.100;2023-06-01T13:57:11;11.77;;;6.05;;
56401;SDS011;42299;35.160;26.100;2023-06-01T13:58:33;11.55;;;5.85;;
56401;SDS011;42299;35.160;26.100;2023-06-01T13:59:55;9.90;;;5.78;;
56401;SDS011;42299;35.160;26.100;2023-06-01T14:01:18;9.90;;;5.55;;
56401;SDS011;42299;35.160;26.100;2023-06-01T14:02:43;11.95;;;5.60;;
56401;SDS011;42299;35.160;26.100;2023-06-01T14:04:05;11.95;;;5.93;;
56401;SDS011;42299;35.160;26.100;2023-06-01T14:05:28;13.50;;;6.63;;
56401;SDS011;42299;35.160;26.100;2023-06-01T14:06:50;11.02;;;5.68;;
56401;SDS011;42299;35.160;26.100;2023-06-01T14:08:12;10.63;;;6.03;;
56401;SDS011;42299;35.160;26.100;2023-06-01T14:09:35;10.43;;;5.57;;
56401;SDS011;42299;35.160;26.100;2023-06-01T14:10:56;13.80;;;6.18;;
56401;SDS011;42299;35.160;26.100;2023-06-01T14:12:18;11.90;;;5.78;;
56401;SDS011;42299;35.160;26.100;2023-06-01T14:13:41;10.85;;;6.57;;
56401;SDS011;42299;35.160;26.100;2023-06-01T14:15:04;11.57;;;6.25;;
56401;SDS011;42299;35.160;26.100;2023-06-01T14:16:27;10.48;;;5.68;;
56401;SDS011;42299;35.160;26.100;2023-06-01T14:17:51;14.52;;;5.88;;
56401;SDS011;42299;35.160;26.100;2023-06-01T14:19:16;13.30;;;6.13;;
56401;SDS011;42299;35.160;26.100;2023-06-01T14:20:38;10.05;;;5.88;;
56401;SDS011;42299;35.160;26.100;2023-06-01T14:22:01;11.45;;;6.22;;
56401;SDS011;42299;35.160;26.100;2023-06-01T14:23:23;12.25;;;5.93;;
56401;SDS011;42299;35.160;26.100;2023-06-01T14:24:46;10.65;;;6.05;;
56401;SDS011;42299;35.160;26.100;2023-06-01T14:26:08;10.75;;;5.60;;
56401;SDS011;42299;35.160;26.100;2023-06-01T14:27:31;11.65;;;6.57;;
56401;SDS011;42299;35.160;26.100;2023-06-01T14:28:54;10.88;;;5.95;;
56401;SDS011;42299;35.160;26.100;2023-06-01T14:30:17;9.75;;;6.05;;
56401;SDS011;42299;35.160;26.100;2023-06-01T14:31:39;12.48;;;6.38;;
56401;SDS011;42299;35.160;26.100;2023-06-01T14:33:04;11.40;;;5.90;;